Relevés horaires Bierset (Belgique)


Relevés horaires à Bierset - Vendredi 23 Juill. 2021
Heure UTC1 Température [°C] Vent [km/h] Hum. [%] Pres.4 [hPa] Visi. [Km] Nébu. [octa] Préc.5 [mm] Cond.
2m. Res. Ros. Dir.2 Vit. Moy. Raf.3
23:00 17.9 17.9 12.9 ENE 5.6 5.6 7.4 73 1012.2(-0.5/3h) 30 4/8 -- --
22:00 18.4 18.4 12.3 ENE 3.7 5.6 9.3 68 1012.6(-0.1/3h) 30 4/8 -- --
21:00 18.9 18.9 12.7 NE 5.6 7.4 11.1 67 1012.6(-0.4/3h) 30 4/8 -- --
20:00 19.4 19.4 12.6 NE 5.6 7.4 9.3 65 1012.5(-1.1/3h) 30 2/8 -- --
19:00 21.2 21.2 12.3 NE 7.4 7.4 11.1 57 1012.5(-1.6/3h) 30 2/8 -- --
18:00 22.6 22.6 12.6 NE 7.4 11.1 16.7 53 1012.8(-1.7/3h) 30 2/8 0/12h
--
17:00 23.4 23.4 13.5 NNE 9.3 11.1 16.7 54 1013.4(-1.6/3h) 20 2/8 -- --
16:00 23.9 23.9 14.8 NNE 9.3 9.3 16.7 57 1013.9(-1.4/3h) 20 2/8 -- --
15:00 24.0 24.0 14.9 NE 9.3 9.3 16.7 57 1014.4(-1.8/3h) 20 2/8 -- --
14:00 23.7 23.7 14.1 NNE 7.4 7.4 13.0 55 1015(-1.6/3h) 20 2/8 -- --
13:00 23.0 23.0 13.5 NNE 5.6 7.4 13.0 55 1015.4(-2.2/3h) 20 2/8 -- --
12:00 22.4 22.4 14.0 NNE 7.4 7.4 16.7 59 1016.3(-1.8/3h) 20 2/8 0/6h
--
11:00 22.2 22.2 13.7 NE 5.6 7.4 16.7 59 1016.8(-1.7/3h) 20 2/8 -- --
10:00 20.8 20.8 12.4 NE 5.6 7.4 11.1 59 1017.8(-1.0/3h) 20 0/8 -- --
09:00 19.7 19.7 11.9 NE 7.4 7.4 14.8 61 1018.4(-0.5/3h) 20 0/8 -- --
08:00 18.6 18.6 12.9 NNE 5.6 5.6 9.3 69 1018.8(0.1/3h) 20 0/8 -- --
07:00 17.3 17.3 13.4 NNO 1.9 3.7 9.3 78 1019(0.0/3h) 12 0/8 -- --
06:00 14.6 14.6 12.9 N 1.9 3.7 7.4 90 1019.2(-0.3/3h) 10 0/8 0/12h
--
05:00 12.6 12.6 11.3 N 1.9 1.9 3.7 92 1019.3(-0.8/3h) 10 0/8 -- --
04:00 12.3 12.3 11.1 N 1.9 3.7 7.4 92 1019.4(-1.0/3h) 10 0/8 -- --
03:00 12.8 12.8 11.4 NE 3.7 3.7 7.4 91 1019.7(-0.9/3h) 15 0/8 -- --
02:00 13.4 13.4 11.9 N 1.9 3.7 3.7 91 1020(-0.6/3h) 15 0/8 -- --
01:00 13.8 13.8 12.1 N 3.7 3.7 5.6 89 1020.3(-0.2/3h) 30 0/8 -- --
00:00 15.2 15.2 12.8 N 3.7 5.6 9.3 86 1020.4(-0.1/3h) 30 0/8 0/6h
0/24h
--

1 Coordinated Universal Time. Actuellement il est 11:00 locale et 09:00 UTC.

2 Le vent souffle depuis la direction indiquée vers la direction oposée.

3 Les rafales max. sont disponible 40 min après l'heure du relevé.

4 Pour les stations d'altitude (plus de 600m) le géopotentiel du niveau le plus proche de la pression obligatoire est indiqué.

5 Les stations disposant d'un diffuseur peuvent indiquer "trace". Cela signifie que des précipitations ont touchés le sol mais que la quantité est inférieure à 0.1 mm.

Récapitulatif de la journée
Température [°C] Vent [km/h] Ensoleillement4 [h] Precipitations totale5 [mm] Pression [Hpa]
Min1 Max.2 Moy.3 Max. Min Max.
12.2 24.2 6.4 16.7 0 h 0 min 0 1012.2 1020.4

1 Température minimale relevée entre 18:00 UTC la veille et 18:00 UTC le jour donné.

2 Température maximale relevée entre 06:00 UTC le jour donné et 06:00 UTC le lendemain.

3 Vent moyen de la journée basé sur les relevés horaires.

4 Ensoleillement en heures relevé entre 06:00 UTC la veille et 06:00 UTC le jour donné.

5 Précipitations totales tombées entre 06:00 UTC la jour donné et 06:00 UTC le lendemain.

Graphiques horaires